Fairbanks International Airport
PAFA : now visible

Airfield :











YOU CAN JOIN US ON...

 
LOGIN :

Register | Disclaimer

   EN    FR    IT 

 









Legend :    VFR   Marginal VFR   IFR   Intensive IFR   Very Intensive IFR
Visi :
Ceiling :
>= 8 km
>= 3000ft
5 to 8 km
1000 to 3000 ft
1500m to 5 km
500 to 1000 ft
800 to 1500m
200 to 500 ft
< 800m
< 200 ft
Symbols :   Thunderstorms  Fog  Heavy snow  Heavy precipitations  Wind > 20 kt






- Airport Elevation : 439 ft
- IATA code : FAI


PAFA - Fairbanks International

CURRENT METAR :
  • 011753Z 04006KT 10SM FEW150 SCT200 M13/M21 A3035 RMK AO2 SLP292 T11281206 11128 21200 58012

EXPIRED METARs :
  • 011653Z 04005KT 10SM FEW150 SCT200 M17/M22 A3037 RMK AO2 SLP297 T11671222
  • 011553Z 05005KT 10SM FEW150 SCT200 M19/M23 A3037 RMK AO2 SLP299 T11891228

TAF PAFA
Valid from the 01 at 18:00 until the 03 at 00:00 UTC


011726Z 0118/0224 04005KT P6SM FEW150 SCT200
FM022000 00000KT P6SM VCSH OVC050
FM022300 00000KT 5SM -SN BR BKN025 OVC050



MET'MAP, your aeronautical weather chart ! - Copyright ORBIFLY December 2007 - Disclaimer

ORBIFLY MET'MAP TEAM :

Programming & Development : Alexandra Zaïnal
Concept & original design : Baudouin d'Aumeries
Assistance for programming : Marc-Olivier Méhu
Technical & hardware support : Manuel Goepfert

Contact : metmap@orbifly.com




SOURCES & CREDITS :

   NOAA       Earth
Advisory